METAR Data
IDs: Format: Raw Decoded Include TAF

Data at: 1352 UTC 26 Feb 2021

ETOU 261327Z AUTO 34005KT 9999 -RA OVC020 06/04 A3049 RMK AO2 RAE1256DZB1256E00RAB12 CIG 019 RWY25 SLP333 $